createdAt,value
2023-04-25T00:01:44.090Z,21.00
2023-04-25T00:04:13.044Z,23.40
2023-04-25T00:06:41.389Z,20.30
2023-04-25T00:09:11.166Z,21.50
2023-04-25T00:11:39.331Z,20.60
2023-04-25T00:14:07.751Z,23.90
2023-04-25T00:16:36.625Z,31.30
2023-04-25T00:19:05.356Z,29.60
2023-04-25T00:21:34.101Z,28.90
2023-04-25T00:24:02.357Z,33.50
2023-04-25T00:26:31.260Z,31.60
2023-04-25T00:28:59.466Z,31.50
2023-04-25T00:31:27.721Z,31.10
2023-04-25T00:33:56.192Z,34.70
2023-04-25T00:36:24.451Z,34.60
2023-04-25T00:38:54.914Z,31.50
2023-04-25T00:41:23.432Z,33.00
2023-04-25T00:43:53.521Z,31.90
2023-04-25T00:46:22.231Z,31.30
2023-04-25T00:48:50.378Z,33.70
2023-04-25T00:51:22.287Z,32.60
2023-04-25T00:53:52.564Z,36.20
2023-04-25T00:56:22.372Z,33.10
2023-04-25T00:58:52.620Z,29.90
2023-04-25T01:01:20.932Z,32.90
2023-04-25T01:03:51.303Z,31.90
2023-04-25T01:06:19.828Z,30.60
2023-04-25T01:08:47.899Z,31.80
2023-04-25T01:11:15.898Z,32.40
2023-04-25T01:13:44.102Z,31.60
2023-04-25T01:16:12.206Z,32.50
2023-04-25T01:18:41.516Z,32.90
2023-04-25T01:21:16.735Z,31.70
2023-04-25T01:23:45.097Z,31.70
2023-04-25T01:26:13.610Z,33.00
2023-04-25T01:28:42.514Z,32.60
2023-04-25T01:31:12.574Z,33.40
2023-04-25T01:33:40.853Z,34.60
2023-04-25T01:36:09.323Z,29.90
2023-04-25T01:38:37.382Z,31.30
2023-04-25T01:41:06.368Z,32.10
2023-04-25T01:43:34.814Z,26.70
2023-04-25T01:46:04.969Z,32.50
2023-04-25T01:48:33.238Z,31.00
2023-04-25T01:51:01.288Z,29.00
2023-04-25T01:53:31.243Z,30.70
2023-04-25T01:55:59.421Z,27.30
2023-04-25T01:58:30.921Z,27.30
2023-04-25T02:01:17.112Z,29.80
2023-04-25T02:03:48.548Z,24.50
2023-04-25T02:06:26.407Z,25.50
2023-04-25T02:08:56.376Z,21.70
2023-04-25T02:11:24.599Z,22.80
2023-04-25T02:14:12.874Z,21.70
2023-04-25T02:17:19.542Z,24.40
2023-04-25T02:19:50.192Z,21.70
2023-04-25T02:22:18.659Z,23.10
2023-04-25T02:24:47.656Z,21.80
2023-04-25T02:27:16.371Z,21.30
2023-04-25T02:29:45.526Z,19.10
2023-04-25T02:32:14.114Z,20.10
2023-04-25T02:34:42.407Z,21.10
2023-04-25T02:37:11.158Z,24.40
2023-04-25T02:39:39.230Z,21.40
2023-04-25T02:42:07.459Z,21.40
2023-04-25T02:44:35.660Z,21.90
2023-04-25T02:47:04.555Z,21.70
2023-04-25T02:49:32.753Z,20.50
2023-04-25T02:52:01.055Z,19.20
2023-04-25T02:54:29.132Z,21.00
2023-04-25T02:56:57.729Z,22.90
2023-04-25T02:59:28.628Z,19.60
2023-04-25T03:01:56.658Z,23.90
2023-04-25T03:04:25.141Z,20.00
2023-04-25T03:06:54.672Z,19.90
2023-04-25T03:09:22.906Z,20.60
2023-04-25T03:11:51.060Z,22.40
2023-04-25T03:14:19.667Z,22.00
2023-04-25T03:16:47.811Z,20.70
2023-04-25T03:19:18.662Z,19.10
2023-04-25T03:21:46.623Z,26.20
2023-04-25T03:24:14.805Z,25.10
2023-04-25T03:26:43.473Z,25.30
2023-04-25T03:29:11.740Z,23.80
2023-04-25T03:31:40.017Z,25.90
2023-04-25T03:34:08.324Z,25.70
2023-04-25T03:36:36.435Z,25.80
2023-04-25T03:39:04.760Z,25.90
2023-04-25T03:41:32.914Z,26.80
2023-04-25T03:44:06.165Z,32.00
2023-04-25T03:46:34.599Z,28.30
2023-04-25T03:49:02.714Z,29.00
2023-04-25T03:51:43.567Z,32.20
2023-04-25T03:54:12.117Z,27.10
2023-04-25T03:56:52.995Z,31.30
2023-04-25T03:59:21.544Z,25.50
2023-04-25T04:01:49.618Z,27.10
2023-04-25T04:04:18.121Z,22.00
2023-04-25T04:06:47.239Z,25.20
2023-04-25T04:09:27.028Z,22.50
2023-04-25T04:11:56.123Z,22.00
2023-04-25T04:14:24.126Z,25.00
2023-04-25T04:16:53.436Z,26.00
2023-04-25T04:19:21.729Z,22.80
2023-04-25T04:21:58.400Z,21.80
2023-04-25T04:24:26.540Z,22.00
2023-04-25T04:26:59.963Z,21.20
2023-04-25T04:29:47.307Z,23.50
2023-04-25T04:32:34.452Z,22.80
2023-04-25T04:35:04.742Z,21.50
2023-04-25T04:37:33.930Z,25.30
2023-04-25T04:40:06.317Z,30.80
2023-04-25T04:42:49.192Z,24.70
2023-04-25T04:45:35.085Z,22.30
2023-04-25T04:48:13.566Z,21.10
2023-04-25T04:51:00.253Z,21.10
2023-04-25T04:53:46.854Z,24.20
2023-04-25T04:56:15.649Z,26.40
2023-04-25T04:58:56.286Z,29.80
2023-04-25T05:01:33.225Z,26.40
2023-04-25T05:04:21.911Z,28.30
2023-04-25T05:07:16.544Z,35.70
2023-04-25T05:10:12.426Z,32.50
2023-04-25T05:13:03.899Z,28.70
2023-04-25T05:16:11.588Z,28.70
2023-04-25T05:18:53.291Z,26.90
2023-04-25T05:21:44.704Z,29.10
2023-04-25T05:24:38.985Z,28.10
2023-04-25T05:27:29.923Z,32.10
2023-04-25T05:30:04.214Z,33.50
2023-04-25T05:32:38.480Z,31.60
2023-04-25T05:35:07.892Z,30.40
2023-04-25T05:37:43.705Z,32.10
2023-04-25T05:40:14.961Z,29.80
2023-04-25T05:42:48.618Z,34.70
2023-04-25T05:45:47.797Z,28.20
2023-04-25T05:48:47.088Z,27.90
2023-04-25T05:51:34.111Z,26.70
2023-04-25T05:54:19.087Z,30.70
2023-04-25T05:56:47.504Z,27.40
2023-04-25T05:59:17.503Z,28.20
2023-04-25T06:01:45.739Z,30.50
2023-04-25T06:04:14.301Z,31.60
2023-04-25T06:06:43.850Z,33.40
2023-04-25T06:09:14.294Z,47.30
2023-04-25T06:11:43.909Z,32.70
2023-04-25T06:14:12.259Z,30.70
2023-04-25T06:16:44.029Z,29.50
2023-04-25T06:19:12.664Z,33.50
2023-04-25T06:21:41.009Z,24.40
2023-04-25T06:24:11.275Z,25.00
2023-04-25T06:26:39.486Z,27.00
2023-04-25T06:29:08.044Z,25.70
2023-04-25T06:31:37.104Z,24.30
2023-04-25T06:34:05.309Z,21.90
2023-04-25T06:36:34.833Z,23.70
2023-04-25T06:39:06.558Z,26.80
2023-04-25T06:41:35.175Z,26.60
2023-04-25T06:44:07.504Z,28.10
2023-04-25T06:46:42.291Z,32.20
2023-04-25T06:49:10.750Z,25.20
2023-04-25T06:51:39.181Z,25.70
2023-04-25T06:54:08.269Z,27.80
2023-04-25T06:56:42.859Z,25.40
2023-04-25T06:59:16.444Z,22.90
2023-04-25T07:01:46.907Z,29.80
2023-04-25T07:04:23.894Z,36.10
2023-04-25T07:06:56.115Z,28.50
2023-04-25T07:09:35.731Z,30.20
2023-04-25T07:12:06.882Z,31.90
2023-04-25T07:14:35.666Z,28.80
2023-04-25T07:17:04.427Z,31.50
2023-04-25T07:19:35.033Z,29.50
2023-04-25T07:22:08.636Z,26.60
2023-04-25T07:24:41.605Z,26.90
2023-04-25T07:27:12.207Z,28.10
2023-04-25T07:29:55.289Z,27.00
2023-04-25T07:32:25.196Z,48.40
2023-04-25T07:34:58.114Z,33.00
2023-04-25T07:37:30.197Z,30.50
2023-04-25T07:40:10.933Z,30.00
2023-04-25T07:42:43.107Z,29.50
2023-04-25T07:45:11.984Z,30.40
2023-04-25T07:47:41.300Z,28.00
2023-04-25T07:50:13.342Z,26.80
2023-04-25T07:52:43.733Z,28.40
2023-04-25T07:55:44.731Z,28.30
2023-04-25T07:58:23.086Z,26.60
2023-04-25T08:00:59.303Z,29.10
2023-04-25T08:03:36.508Z,28.90
2023-04-25T08:06:25.091Z,30.30
2023-04-25T08:09:11.155Z,28.50
2023-04-25T08:11:41.565Z,31.10
2023-04-25T08:14:12.608Z,32.00
2023-04-25T08:16:41.410Z,29.20
2023-04-25T08:19:10.727Z,31.00
2023-04-25T08:21:40.030Z,28.00
2023-04-25T08:24:16.156Z,28.70
2023-04-25T08:26:44.846Z,31.90
2023-04-25T08:29:17.441Z,26.60
2023-04-25T08:31:48.030Z,27.90
2023-04-25T08:34:18.281Z,29.80
2023-04-25T08:36:52.874Z,36.60
2023-04-25T08:39:32.759Z,30.20
2023-04-25T08:42:40.821Z,27.00
2023-04-25T08:45:11.886Z,29.70
2023-04-25T08:47:49.792Z,25.00
2023-04-25T08:50:20.429Z,23.80
2023-04-25T08:52:54.070Z,25.40
2023-04-25T08:55:24.833Z,25.10
2023-04-25T08:57:56.344Z,24.10
2023-04-25T09:00:28.948Z,20.60
2023-04-25T09:03:02.235Z,20.50
2023-04-25T09:05:35.447Z,19.50
2023-04-25T09:08:04.337Z,22.20
2023-04-25T09:13:16.600Z,20.30
2023-04-25T09:16:12.905Z,24.80
2023-04-25T09:18:54.815Z,19.80
2023-04-25T09:21:25.424Z,19.60
2023-04-25T09:23:53.849Z,19.20
2023-04-25T09:26:25.491Z,21.90
2023-04-25T09:29:11.080Z,18.50
2023-04-25T09:31:42.005Z,17.80
2023-04-25T09:34:16.666Z,16.30
2023-04-25T09:39:57.099Z,15.60
2023-04-25T09:42:28.072Z,15.40
2023-04-25T09:44:57.461Z,18.10
2023-04-25T09:47:27.942Z,14.30
2023-04-25T09:49:56.796Z,18.30
2023-04-25T09:52:26.494Z,12.90
2023-04-25T09:55:12.940Z,11.80
2023-04-25T09:57:43.926Z,10.80
2023-04-25T10:00:14.048Z,34.10
2023-04-25T10:02:55.673Z,32.80
2023-04-25T10:05:54.571Z,11.60
2023-04-25T10:08:24.456Z,10.80
2023-04-25T10:10:52.547Z,11.30
2023-04-25T10:13:21.982Z,10.10
2023-04-25T10:15:50.684Z,10.70
2023-04-25T10:18:21.009Z,7.90
2023-04-25T10:20:49.566Z,9.90
2023-04-25T10:23:22.835Z,7.40
2023-04-25T10:25:55.235Z,5.90
2023-04-25T10:28:24.053Z,5.20
2023-04-25T10:31:09.681Z,5.60
2023-04-25T10:33:39.792Z,6.90
2023-04-25T10:36:16.040Z,6.50
2023-04-25T10:38:46.398Z,9.80
2023-04-25T10:41:15.490Z,5.40
2023-04-25T10:43:52.147Z,6.20
2023-04-25T10:46:25.427Z,6.60
2023-04-25T10:48:55.615Z,6.00
2023-04-25T10:54:23.468Z,5.70
2023-04-25T10:57:12.895Z,5.90
2023-04-25T10:59:43.374Z,5.40
2023-04-25T11:02:16.103Z,7.90
2023-04-25T11:04:56.416Z,6.60
2023-04-25T11:08:06.413Z,9.90
2023-04-25T11:10:39.458Z,9.10
2023-04-25T11:13:09.604Z,6.50
2023-04-25T11:15:41.755Z,4.10
2023-04-25T11:18:19.971Z,6.10
2023-04-25T11:20:55.374Z,5.10
2023-04-25T11:23:31.765Z,4.20
2023-04-25T11:26:02.743Z,4.10
2023-04-25T11:28:34.544Z,17.50
2023-04-25T11:31:08.984Z,5.70
2023-04-25T11:33:37.417Z,7.10
2023-04-25T11:36:07.147Z,6.30
2023-04-25T11:38:36.866Z,4.30
2023-04-25T11:41:07.666Z,6.80
2023-04-25T11:43:37.863Z,6.30
2023-04-25T11:46:11.125Z,3.80
2023-04-25T11:48:43.185Z,5.90
2023-04-25T11:51:14.872Z,6.10
2023-04-25T11:53:46.799Z,8.40
2023-04-25T11:56:15.400Z,8.00
2023-04-25T11:59:06.735Z,12.50
2023-04-25T12:01:37.684Z,4.80
2023-04-25T12:04:15.085Z,23.40
2023-04-25T12:06:45.166Z,5.90
2023-04-25T12:09:36.639Z,6.70
2023-04-25T12:12:05.180Z,12.60
2023-04-25T12:14:37.190Z,22.90
2023-04-25T12:17:08.971Z,8.90
2023-04-25T12:19:42.570Z,9.70
2023-04-25T12:22:22.560Z,6.70
2023-04-25T12:24:51.115Z,8.60
2023-04-25T12:27:20.242Z,13.40
2023-04-25T12:30:08.187Z,6.30
2023-04-25T12:32:37.015Z,6.60
2023-04-25T12:35:07.687Z,5.00
2023-04-25T12:37:35.790Z,6.30
2023-04-25T12:40:05.436Z,10.10
2023-04-25T12:42:33.656Z,10.20
2023-04-25T12:45:01.749Z,5.70
2023-04-25T12:49:55.245Z,5.70
2023-04-25T12:52:24.721Z,5.90
2023-04-25T12:54:53.267Z,5.40
2023-04-25T12:57:23.278Z,12.50
2023-04-25T12:59:52.293Z,4.80
2023-04-25T13:02:21.455Z,11.50
2023-04-25T13:04:50.387Z,121.30
2023-04-25T13:07:20.508Z,5.90
2023-04-25T13:09:48.760Z,6.20
2023-04-25T13:12:19.267Z,7.50
2023-04-25T13:14:47.580Z,7.40
2023-04-25T13:17:15.918Z,4.40
2023-04-25T13:19:44.348Z,3.20
2023-04-25T13:22:18.312Z,6.10
2023-04-25T13:24:46.586Z,4.70
2023-04-25T13:27:14.748Z,3.70
2023-04-25T13:29:42.865Z,5.20
2023-04-25T13:32:11.783Z,5.60
2023-04-25T13:34:40.075Z,5.70
2023-04-25T13:37:12.842Z,6.90
2023-04-25T13:39:46.175Z,4.90
2023-04-25T13:42:17.213Z,3.70
2023-04-25T13:44:45.441Z,6.60
2023-04-25T13:47:14.171Z,4.90
2023-04-25T13:49:42.503Z,3.50
2023-04-25T13:52:10.885Z,6.00
2023-04-25T13:54:39.812Z,4.70
2023-04-25T13:57:14.849Z,6.30
2023-04-25T13:59:52.773Z,4.50
2023-04-25T14:02:22.502Z,4.50
2023-04-25T14:04:51.389Z,4.30
2023-04-25T14:07:22.671Z,4.10
2023-04-25T14:09:51.408Z,5.40
2023-04-25T14:12:22.172Z,4.60
2023-04-25T14:14:50.498Z,4.00
2023-04-25T14:17:21.667Z,6.60
2023-04-25T14:19:51.165Z,4.90
2023-04-25T14:22:20.361Z,3.50
2023-04-25T14:24:48.452Z,5.90
2023-04-25T14:27:16.725Z,6.00
2023-04-25T14:29:45.172Z,4.30
2023-04-25T14:32:13.260Z,6.40
2023-04-25T14:34:41.476Z,5.90
2023-04-25T14:37:11.068Z,4.70
2023-04-25T14:39:39.262Z,2.50
2023-04-25T14:42:07.567Z,3.00
2023-04-25T14:44:35.857Z,5.00
2023-04-25T14:47:04.080Z,6.40
2023-04-25T14:49:33.441Z,6.80
2023-04-25T14:52:02.201Z,3.30
2023-04-25T14:54:30.374Z,4.60
2023-04-25T14:56:58.838Z,5.80
2023-04-25T14:59:28.286Z,6.70
2023-04-25T15:01:59.495Z,10.80
2023-04-25T15:04:28.173Z,4.20
2023-04-25T15:06:57.055Z,6.20
2023-04-25T15:09:25.980Z,5.50
2023-04-25T15:11:55.729Z,6.20
2023-04-25T15:14:23.914Z,5.80
2023-04-25T15:16:52.237Z,4.80
2023-04-25T15:19:20.474Z,5.80
2023-04-25T15:21:49.368Z,6.50
2023-04-25T15:24:21.666Z,5.80
2023-04-25T15:26:51.649Z,5.70
2023-04-25T15:29:20.435Z,5.80
2023-04-25T15:31:48.730Z,6.40
2023-04-25T15:34:18.403Z,5.40
2023-04-25T15:36:49.223Z,5.20
2023-04-25T15:39:18.780Z,4.90
2023-04-25T15:41:47.890Z,5.30
2023-04-25T15:44:16.123Z,7.20
2023-04-25T15:46:46.151Z,6.60
2023-04-25T15:49:18.992Z,6.50
2023-04-25T15:51:53.281Z,11.60
2023-04-25T15:54:29.609Z,6.50
2023-04-25T15:56:57.940Z,8.30
2023-04-25T15:59:26.372Z,7.60
2023-04-25T16:01:54.681Z,6.30
2023-04-25T16:04:25.258Z,5.80
2023-04-25T16:06:53.552Z,6.80
2023-04-25T16:12:08.942Z,6.40
2023-04-25T16:14:37.515Z,7.80
2023-04-25T16:17:05.885Z,7.70
2023-04-25T16:19:34.231Z,6.80
2023-04-25T16:22:02.787Z,6.00
2023-04-25T16:24:30.933Z,6.50
2023-04-25T16:26:59.775Z,7.00
2023-04-25T16:29:28.251Z,7.50
2023-04-25T16:31:57.350Z,5.40
2023-04-25T16:34:27.865Z,6.30
2023-04-25T16:36:57.670Z,8.00
2023-04-25T16:39:28.789Z,7.50
2023-04-25T16:41:56.831Z,6.50
2023-04-25T16:44:24.886Z,8.20
2023-04-25T16:46:53.027Z,4.70
2023-04-25T16:49:21.278Z,6.20
2023-04-25T16:51:49.495Z,5.90
2023-04-25T16:54:17.836Z,7.70
2023-04-25T16:56:46.013Z,6.30
2023-04-25T16:59:14.114Z,5.10
2023-04-25T17:01:42.685Z,5.20
2023-04-25T17:04:11.215Z,2.60
2023-04-25T17:06:40.194Z,2.60
2023-04-25T17:09:08.493Z,3.70
2023-04-25T17:11:37.126Z,2.40
2023-04-25T17:14:06.140Z,3.20
2023-04-25T17:16:36.688Z,2.00
2023-04-25T17:19:06.504Z,2.40
2023-04-25T17:21:34.684Z,3.30
2023-04-25T17:24:06.177Z,2.80
2023-04-25T17:26:34.387Z,4.50
2023-04-25T17:29:02.823Z,2.10
2023-04-25T17:31:31.351Z,2.20
2023-04-25T17:33:59.982Z,3.00
2023-04-25T17:36:28.240Z,3.10
2023-04-25T17:38:56.661Z,4.80
2023-04-25T17:41:26.608Z,3.80
2023-04-25T17:43:54.642Z,3.00
2023-04-25T17:46:22.907Z,2.70
2023-04-25T17:48:52.924Z,2.90
2023-04-25T17:51:21.478Z,2.50
2023-04-25T17:53:49.530Z,2.90
2023-04-25T17:56:26.551Z,2.80
2023-04-25T17:58:56.121Z,6.10
2023-04-25T18:01:27.649Z,3.70
2023-04-25T18:03:56.602Z,3.90
2023-04-25T18:06:25.007Z,3.30
2023-04-25T18:08:53.465Z,3.20
2023-04-25T18:11:22.011Z,3.40
2023-04-25T18:13:50.471Z,2.70
2023-04-25T18:16:22.390Z,3.50
2023-04-25T18:18:54.004Z,4.00
2023-04-25T18:21:24.892Z,4.80
2023-04-25T18:23:53.226Z,2.70
2023-04-25T18:26:23.370Z,3.20
2023-04-25T18:28:51.997Z,2.20
2023-04-25T18:31:24.979Z,3.80
2023-04-25T18:33:53.499Z,3.40
2023-04-25T18:36:22.413Z,2.70
2023-04-25T18:38:56.501Z,3.60
2023-04-25T18:41:51.911Z,2.30
2023-04-25T18:44:19.740Z,4.10
2023-04-25T18:46:47.982Z,2.70
2023-04-25T18:49:16.036Z,3.00
2023-04-25T18:51:45.466Z,2.00
2023-04-25T18:54:13.968Z,3.00
2023-04-25T18:56:42.263Z,3.80
2023-04-25T18:59:11.220Z,3.70
2023-04-25T19:01:40.000Z,3.40
2023-04-25T19:04:09.799Z,3.10
2023-04-25T19:06:38.234Z,3.60
2023-04-25T19:09:07.863Z,3.50
2023-04-25T19:11:36.200Z,2.30
2023-04-25T19:14:04.270Z,2.90
2023-04-25T19:16:39.234Z,3.90
2023-04-25T19:19:09.228Z,4.00
2023-04-25T19:21:37.447Z,3.40
2023-04-25T19:24:09.020Z,2.70
2023-04-25T19:26:37.464Z,3.70
2023-04-25T19:29:09.821Z,5.20
2023-04-25T19:31:39.650Z,3.50
2023-04-25T19:34:09.289Z,2.70
2023-04-25T19:36:42.394Z,3.40
2023-04-25T19:39:11.028Z,4.60
2023-04-25T19:41:39.306Z,4.20
2023-04-25T19:44:09.284Z,2.70
2023-04-25T19:46:37.652Z,2.80
2023-04-25T19:49:07.821Z,3.60
2023-04-25T19:51:40.861Z,3.90
2023-04-25T19:54:08.981Z,1.50
2023-04-25T19:56:37.072Z,2.70
2023-04-25T19:59:05.289Z,6.60
2023-04-25T20:01:33.519Z,2.80
2023-04-25T20:04:01.892Z,2.10
2023-04-25T20:06:32.393Z,2.10
2023-04-25T20:09:01.546Z,2.30
2023-04-25T20:11:29.534Z,2.50
2023-04-25T20:13:57.885Z,2.50
2023-04-25T20:16:26.123Z,2.20
2023-04-25T20:18:55.416Z,2.90
2023-04-25T20:21:23.896Z,2.50
2023-04-25T20:23:53.376Z,2.80
2023-04-25T20:26:24.910Z,1.80
2023-04-25T20:28:53.281Z,1.90
2023-04-25T20:31:23.357Z,1.80
2023-04-25T20:33:51.628Z,2.40
2023-04-25T20:36:19.904Z,1.80
2023-04-25T20:38:48.099Z,2.40
2023-04-25T20:41:16.276Z,1.80
2023-04-25T20:43:44.562Z,0.80
2023-04-25T20:46:13.166Z,1.00
2023-04-25T20:48:41.319Z,0.70
2023-04-25T20:51:09.476Z,1.10
2023-04-25T20:53:37.888Z,0.70
2023-04-25T20:56:06.718Z,0.90
2023-04-25T20:58:34.863Z,0.70
2023-04-25T21:01:04.360Z,1.00
2023-04-25T21:03:33.813Z,0.60
2023-04-25T21:06:02.235Z,0.90
2023-04-25T21:08:30.419Z,1.20
2023-04-25T21:10:58.500Z,0.70
2023-04-25T21:13:29.168Z,1.10
2023-04-25T21:15:58.468Z,0.90
2023-04-25T21:18:26.488Z,1.00
2023-04-25T21:20:54.629Z,0.90
2023-04-25T21:23:22.699Z,0.70
2023-04-25T21:25:52.028Z,0.90
2023-04-25T21:28:21.055Z,0.90
2023-04-25T21:30:49.352Z,0.80
2023-04-25T21:33:17.508Z,0.70
2023-04-25T21:35:46.399Z,0.80
2023-04-25T21:38:15.685Z,0.60
2023-04-25T21:40:46.046Z,0.60
2023-04-25T21:43:14.154Z,2.00
2023-04-25T21:46:05.760Z,0.60
2023-04-25T21:48:31.783Z,1.00
2023-04-25T21:51:00.254Z,0.60
2023-04-25T21:53:28.268Z,0.90
2023-04-25T21:55:56.343Z,1.20
2023-04-25T21:58:24.871Z,1.00
2023-04-25T22:00:54.125Z,0.80
2023-04-25T22:03:24.403Z,0.90
2023-04-25T22:05:52.541Z,0.70
2023-04-25T22:08:20.807Z,0.80
2023-04-25T22:10:49.517Z,0.90
2023-04-25T22:13:17.522Z,0.70
2023-04-25T22:15:46.068Z,0.90
2023-04-25T22:18:14.492Z,0.80
2023-04-25T22:20:44.645Z,1.30
2023-04-25T22:23:12.690Z,0.80
2023-04-25T22:25:42.142Z,1.50
2023-04-25T22:28:10.775Z,0.60
2023-04-25T22:30:41.366Z,2.10
2023-04-25T22:33:09.537Z,0.70
2023-04-25T22:35:37.585Z,2.50
2023-04-25T22:38:05.543Z,1.40
2023-04-25T22:40:34.607Z,0.70
2023-04-25T22:43:02.616Z,1.10
2023-04-25T22:45:30.715Z,0.60
2023-04-25T22:47:58.853Z,0.60
2023-04-25T22:50:27.119Z,0.70
2023-04-25T22:52:55.229Z,0.90
2023-04-25T22:55:26.560Z,1.60
2023-04-25T22:57:54.888Z,2.30
2023-04-25T23:00:26.164Z,0.80
2023-04-25T23:02:54.445Z,0.90
2023-04-25T23:05:25.898Z,0.90
2023-04-25T23:07:54.769Z,1.00
2023-04-25T23:10:23.309Z,1.20
2023-04-25T23:12:51.570Z,1.10
2023-04-25T23:15:20.889Z,1.00
2023-04-25T23:17:48.979Z,1.10
2023-04-25T23:20:17.342Z,2.30
2023-04-25T23:22:45.341Z,1.30
2023-04-25T23:25:13.647Z,1.10
2023-04-25T23:27:41.825Z,1.30
2023-04-25T23:30:11.939Z,1.10
2023-04-25T23:32:40.660Z,6.20
2023-04-25T23:35:12.895Z,1.00
2023-04-25T23:37:40.914Z,1.80
2023-04-25T23:40:10.164Z,1.60
2023-04-25T23:42:40.053Z,1.30
2023-04-25T23:45:09.146Z,1.30
2023-04-25T23:47:37.606Z,1.30
2023-04-25T23:50:08.305Z,1.60
2023-04-25T23:52:36.377Z,3.60
2023-04-25T23:55:05.669Z,2.90
2023-04-25T23:57:33.807Z,1.40
